Terminal Aerodrome Forecast
Issued by NWS

Home | Current Version | Previous Version | Text Only | Print | Product List | Glossary On
Versions: 1 2 3 4 5 6 7 8 9 10 11 12 13 14 15
188
FTUS43 KILX 250520
TAFDEC
TAF
KDEC 250520Z 2506/2606 16010KT P6SM VCTS OVC045CB
     FM250800 13011KT 4SM -SHRA BR VCTS SCT012 OVC025CB
     FM251100 14014KT 5SM -RA BR OVC015
     FM251600 16014G22KT P6SM VCSH OVC045
     FM252200 14014KT P6SM OVC050
     FM260200 14008KT P6SM BKN035=

USA.gov is the U.S. government's official web portal to all federal, state and local government web resources and services.